• Join FlightAware (Why Join?)
  • Login
  • US Flag 
07:10AM EST


 

Airport Tracker/Info


-or-


 

Live Flight TrackerFlight Track Log ✈ XOJ552 ✈ 27-Jun-2013 ✈ KVNY - PHNL

Flight Track Log - Related Links

Times and Time Zones

All times are in EDT time to prevent confusion due to time zone crossing. See the XOJ552 flight status page for this flight to view local times or setup timezone preferences in your user account.

Time Position Orientation Groundspeed Altitude Reporting Facility
EDT Latitude Longitude Course Direction KTS MPH feet Rate Location/Type
02:14PM 34.1667 -118.5000 239° Southwest 189 217 2,300  Level Southern California TRACON
02:15PM 34.1333 -118.5667 239° Southwest 243 280 4,800 2,580 Climbing Southern California TRACON
02:16PM 34.1333 -118.6667 270° West 283 326 7,500 1,320 Climbing Southern California TRACON
02:18PM 34.2247 -118.7294 330° Northwest 293 337 8,000 480 Climbing Los Angeles Center
02:19PM 34.2836 -118.7975 316° Northwest 292 336 8,800 900 Climbing Los Angeles Center
02:20PM 34.3428 -118.8664 316° Northwest 294 338 9,900 1,020 Climbing Los Angeles Center
02:21PM 34.3747 -118.9867 288° West 321 369 11,000 900 Climbing Los Angeles Center
02:22PM 34.3761 -119.1033 271° West 357 411 11,800 1,260 Climbing Los Angeles Center
02:23PM 34.3619 -119.2286 262° West 374 430 13,700 1,920 Climbing Los Angeles Center
02:24PM 34.3472 -119.3578 262° West 388 447 15,800 2,100 Climbing Los Angeles Center
02:25PM 34.3314 -119.4883 262° West 393 452 18,100 2,040 Climbing Los Angeles Center
02:26PM 34.2942 -119.6414 254° West 400 460 20,100 1,800 Climbing Los Angeles Center
02:27PM 34.2606 -119.7753 253° West 417 480 21,900 1,680 Climbing Los Angeles Center
02:28PM 34.2239 -119.9119 252° West 429 494 23,600 1,620 Climbing Los Angeles Center
02:29PM 34.1864 -120.0519 252° West 438 504 25,300 1,620 Climbing Los Angeles Center
02:30PM 34.1494 -120.1928 252° West 442 509 27,000 1,320 Climbing Los Angeles Center
02:31PM 34.1117 -120.3364 252° West 453 521 28,100 840 Climbing Los Angeles Center
02:32PM 34.0683 -120.4906 251° West 462 532 28,800 720 Climbing Los Angeles Center
02:33PM 34.0272 -120.6456 252° West 478 550 29,700 1,080 Climbing Los Angeles Center
02:34PM 33.9761 -120.8317 252° West 485 558 31,100 1,260 Climbing Los Angeles Center
02:35PM 33.9336 -120.9847 252° West 482 555 32,400 1,200 Climbing Los Angeles Center
02:36PM 33.8914 -121.1356 251° West 477 549 33,700 1,200 Climbing Los Angeles Center
02:37PM 33.8492 -121.2847 251° West 473 544 35,000 1,200 Climbing Los Angeles Center
02:38PM 33.8072 -121.4322 251° West 469 540 36,300 1,200 Climbing Los Angeles Center
02:39PM 33.7656 -121.5772 251° West 461 531 37,600 1,380 Climbing Los Angeles Center
02:40PM 33.7189 -121.7481 252° West 451 519 39,200 1,380 Climbing Los Angeles Center
02:41PM 33.6806 -121.8864 252° West 441 507 40,500 960 Climbing Los Angeles Center
02:42PM 33.6414 -122.0183 250° West 426 490 41,200 660 Climbing Los Angeles Center
02:43PM 33.6019 -122.1508 250° West 423 487 41,900 540 Climbing Los Angeles Center
02:44PM 33.5639 -122.2817 251° West 418 481 42,400 420 Climbing Los Angeles Center
02:45PM 33.5253 -122.4122 250° West 418 481 42,800 240 Climbing Los Angeles Center
02:47PM 33.4742 -122.5661 248° West 415 478 43,000  Climbing Los Angeles Center
02:49PM 33.4156 -122.8388 257° West  Level FlightAware Approximate
02:56PM 33.2172 -123.8038 256° West  Level FlightAware Approximate
02:57PM 33.1883 -123.9413 256° West  Level FlightAware Approximate
02:58PM 33.1592 -124.0787 256° West  Level FlightAware Approximate
02:59PM 33.1300 -124.2160 256° West  Level FlightAware Approximate
03:00PM 33.1006 -124.3532 256° West  Level FlightAware Approximate
03:01PM 33.0667 -124.4867 270° West  Level FlightAware Approximate
03:02PM 33.0410 -124.6239 254° West  Level FlightAware Approximate
03:03PM 33.0082 -124.7599 254° West  Level FlightAware Approximate
03:03PM 33.0667 -124.5167 255° West 426 490 43,000  Level Oakland Oceanic (ODAPS)
03:04PM 32.9753 -124.8958 254° West  Level FlightAware Approximate
03:05PM 32.9431 -125.0319 255° West  Level FlightAware Approximate
03:06PM 32.9130 -125.1690 255° West  Level FlightAware Approximate
03:07PM 32.8828 -125.3060 255° West  Level FlightAware Approximate
03:08PM 32.8525 -125.4430 255° West  Level FlightAware Approximate
03:09PM 32.8186 -125.6052 255° West 426 490 43,000  Level FlightAware Transoceanic
03:10PM 32.7869 -125.7408 254° West 426 490 43,000  Level FlightAware Transoceanic
03:11PM 32.7551 -125.8764 254° West 426 490 43,000  Level FlightAware Transoceanic
03:12PM 32.7231 -126.0118 254° West 426 490 43,000  Level FlightAware Transoceanic
03:13PM 32.6910 -126.1471 254° West 426 490 43,000  Level FlightAware Transoceanic
03:14PM 32.6587 -126.2824 254° West 426 490 43,000  Level FlightAware Transoceanic
03:15PM 32.6263 -126.4175 254° West 426 490 43,000  Level FlightAware Transoceanic
03:16PM 32.5938 -126.5526 254° West 426 490 43,000  Level FlightAware Transoceanic
03:17PM 32.5611 -126.6875 254° West 426 490 43,000  Level FlightAware Transoceanic
03:18PM 32.5282 -126.8224 254° West 426 490 43,000  Level FlightAware Transoceanic
03:19PM 32.4953 -126.9571 254° West 426 490 43,000  Level FlightAware Transoceanic
03:20PM 32.4621 -127.0918 254° West 426 490 43,000  Level FlightAware Transoceanic
03:21PM 32.4289 -127.2263 254° West 426 490 43,000  Level FlightAware Transoceanic
03:22PM 32.3955 -127.3608 254° West 426 490 43,000  Level FlightAware Transoceanic
03:23PM 32.3619 -127.4952 253° West 426 490 43,000  Level FlightAware Transoceanic
03:24PM 32.3282 -127.6294 253° West 426 490 43,000  Level FlightAware Transoceanic
03:25PM 32.2944 -127.7636 253° West 426 490 43,000  Level FlightAware Transoceanic
03:26PM 32.2604 -127.8976 253° West 426 490 43,000  Level FlightAware Transoceanic
03:27PM 32.2263 -128.0316 253° West 426 490 43,000  Level FlightAware Transoceanic
03:28PM 32.1920 -128.1655 253° West 426 490 43,000  Level FlightAware Transoceanic
03:29PM 32.1576 -128.2992 253° West 426 490 43,000  Level FlightAware Transoceanic
03:30PM 32.1231 -128.4328 253° West 426 490 43,000  Level FlightAware Transoceanic
03:31PM 32.0884 -128.5664 253° West 426 490 43,000  Level FlightAware Transoceanic
03:32PM 32.0536 -128.6998 253° West 426 490 43,000  Level FlightAware Transoceanic
03:33PM 32.0186 -128.8332 253° West 426 490 43,000  Level FlightAware Transoceanic
03:34PM 31.9835 -128.9664 253° West 426 490 43,000  Level FlightAware Transoceanic
03:35PM 31.9482 -129.0996 253° West 426 490 43,000  Level FlightAware Transoceanic
03:36PM 31.9129 -129.2326 253° West 426 490 43,000  Level FlightAware Transoceanic
03:37PM 31.8774 -129.3656 252° West 426 490 43,000  Level FlightAware Transoceanic
03:38PM 31.8417 -129.4984 252° West 426 490 43,000  Level FlightAware Transoceanic
03:39PM 31.8059 -129.6311 252° West 426 490 43,000  Level FlightAware Transoceanic
03:40PM 31.7700 -129.7638 252° West 426 490 43,000  Level FlightAware Transoceanic
03:41PM 31.7339 -129.8963 252° West 426 490 43,000  Level FlightAware Transoceanic
03:42PM 31.6977 -130.0287 252° West 426 490 43,000  Level FlightAware Transoceanic
03:43PM 31.6614 -130.1611 252° West 426 490 43,000  Level FlightAware Transoceanic
03:44PM 31.6249 -130.2933 252° West 426 490 43,000  Level FlightAware Transoceanic
03:45PM 31.5883 -130.4254 252° West 426 490 43,000  Level FlightAware Transoceanic
03:46PM 31.5515 -130.5574 252° West 426 490 43,000  Level FlightAware Transoceanic
03:47PM 31.5146 -130.6893 252° West 426 490 43,000  Level FlightAware Transoceanic
03:48PM 31.4776 -130.8211 252° West 426 490 43,000  Level FlightAware Transoceanic
03:49PM 31.4404 -130.9528 252° West 426 490 43,000  Level FlightAware Transoceanic
03:50PM 31.4032 -131.0844 252° West 426 490 43,000  Level FlightAware Transoceanic
03:51PM 31.3657 -131.2159 252° West 426 490 43,000  Level FlightAware Transoceanic
03:52PM 31.3282 -131.3472 251° West 426 490 43,000  Level FlightAware Transoceanic
03:53PM 31.2905 -131.4785 251° West 426 490 43,000  Level FlightAware Transoceanic
03:54PM 31.2526 -131.6097 251° West 426 490 43,000  Level FlightAware Transoceanic
03:55PM 31.2147 -131.7408 251° West 426 490 43,000  Level FlightAware Transoceanic
03:56PM 31.1766 -131.8717 251° West 426 490 43,000  Level FlightAware Transoceanic
03:57PM 31.1384 -132.0026 251° West 426 490 43,000  Level FlightAware Transoceanic
03:58PM 31.1000 -132.1333 251° West 426 490 43,000  Level FlightAware Transoceanic
03:59PM 31.0627 -132.2600 251° West 426 490 43,000  Level FlightAware Transoceanic
04:00PM 31.0254 -132.3865 251° West 426 490 43,000  Level FlightAware Transoceanic
04:01PM 30.9879 -132.5130 251° West 426 490 43,000  Level FlightAware Transoceanic
04:01PM 31.1000 -132.1333 251° West 413 475 43,000  Level Oakland Oceanic (ODAPS)
04:02PM 30.9503 -132.6393 251° West 426 490 43,000  Level FlightAware Transoceanic
04:03PM 30.9125 -132.7656 251° West 426 490 43,000  Level FlightAware Transoceanic
04:04PM 30.8747 -132.8917 251° West 426 490 43,000  Level FlightAware Transoceanic
04:05PM 30.8367 -133.0178 251° West 426 490 43,000  Level FlightAware Transoceanic
04:06PM 30.7986 -133.1437 251° West 426 490 43,000  Level FlightAware Transoceanic
04:07PM 30.8367 -133.0178 251° West 413 475 43,000  Level FlightAware Transoceanic
04:08PM 30.7986 -133.1437 251° West 413 475 43,000  Level FlightAware Transoceanic
04:09PM 30.7603 -133.2696 250° West 413 475 43,000  Level FlightAware Transoceanic
04:10PM 30.7220 -133.3953 250° West 413 475 43,000  Level FlightAware Transoceanic
04:11PM 30.6835 -133.5210 250° West 413 475 43,000  Level FlightAware Transoceanic
04:12PM 30.6449 -133.6465 250° West 413 475 43,000  Level FlightAware Transoceanic
04:13PM 30.6062 -133.7720 250° West 413 475 43,000  Level FlightAware Transoceanic
04:14PM 30.5674 -133.8973 250° West 413 475 43,000  Level FlightAware Transoceanic
04:15PM 30.5284 -134.0226 250° West 413 475 43,000  Level FlightAware Transoceanic
04:16PM 30.4893 -134.1477 250° West 413 475 43,000  Level FlightAware Transoceanic
04:17PM 30.4502 -134.2728 250° West 413 475 43,000  Level FlightAware Transoceanic
04:18PM 30.4109 -134.3977 250° West 413 475 43,000  Level FlightAware Transoceanic
04:19PM 30.3714 -134.5226 250° West 413 475 43,000  Level FlightAware Transoceanic
04:20PM 30.3319 -134.6473 250° West 413 475 43,000  Level FlightAware Transoceanic
04:21PM 30.2922 -134.7720 250° West 413 475 43,000  Level FlightAware Transoceanic
04:22PM 30.2524 -134.8965 250° West 413 475 43,000  Level FlightAware Transoceanic
04:23PM 30.2125 -135.0209 250° West 413 475 43,000  Level FlightAware Transoceanic
04:24PM 30.1725 -135.1453 250° West 413 475 43,000  Level FlightAware Transoceanic
04:25PM 30.1324 -135.2695 249° West 413 475 43,000  Level FlightAware Transoceanic
04:26PM 30.0921 -135.3937 249° West 413 475 43,000  Level FlightAware Transoceanic
04:27PM 30.0517 -135.5177 249° West 413 475 43,000  Level FlightAware Transoceanic
04:28PM 30.0112 -135.6416 249° West 413 475 43,000  Level FlightAware Transoceanic
04:29PM 29.9706 -135.7655 249° West 413 475 43,000  Level FlightAware Transoceanic
04:30PM 29.9299 -135.8892 249° West 413 475 43,000  Level FlightAware Transoceanic
04:31PM 29.8891 -136.0128 249° West 413 475 43,000  Level FlightAware Transoceanic
04:32PM 29.8481 -136.1364 249° West 413 475 43,000  Level FlightAware Transoceanic
04:33PM 29.8071 -136.2598 249° West 413 475 43,000  Level FlightAware Transoceanic
04:34PM 29.7659 -136.3831 249° West 413 475 43,000  Level FlightAware Transoceanic
04:35PM 29.7246 -136.5064 249° West 413 475 43,000  Level FlightAware Transoceanic
04:36PM 29.6832 -136.6295 249° West 413 475 43,000  Level FlightAware Transoceanic
04:37PM 29.6417 -136.7525 249° West 413 475 43,000  Level FlightAware Transoceanic
04:38PM 29.6000 -136.8754 249° West 413 475 43,000  Level FlightAware Transoceanic
04:39PM 29.5583 -136.9983 249° West 413 475 43,000  Level FlightAware Transoceanic
04:40PM 29.5164 -137.1210 249° West 413 475 43,000  Level FlightAware Transoceanic
04:41PM 29.4744 -137.2436 249° West 413 475 43,000  Level FlightAware Transoceanic
04:42PM 29.4324 -137.3661 248° West 413 475 43,000  Level FlightAware Transoceanic
04:43PM 29.3902 -137.4885 248° West 413 475 43,000  Level FlightAware Transoceanic
04:44PM 29.3479 -137.6108 248° West 413 475 43,000  Level FlightAware Transoceanic
04:45PM 29.3054 -137.7330 248° West 413 475 43,000  Level FlightAware Transoceanic
04:46PM 29.2629 -137.8552 248° West 413 475 43,000  Level FlightAware Transoceanic
04:47PM 29.2203 -137.9772 248° West 413 475 43,000  Level FlightAware Transoceanic
04:48PM 29.1775 -138.0991 248° West 413 475 43,000  Level FlightAware Transoceanic
04:49PM 29.1346 -138.2209 248° West 413 475 43,000  Level FlightAware Transoceanic
04:50PM 29.0917 -138.3426 248° West 413 475 43,000  Level FlightAware Transoceanic
04:51PM 29.0486 -138.4642 248° West 413 475 43,000  Level FlightAware Transoceanic
04:52PM 29.0054 -138.5857 248° West 413 475 43,000  Level FlightAware Transoceanic
04:53PM 28.9621 -138.7071 248° West 413 475 43,000  Level FlightAware Transoceanic
04:54PM 28.9187 -138.8284 248° West 413 475 43,000  Level FlightAware Transoceanic
04:55PM 28.8752 -138.9496 248° West 413 475 43,000  Level FlightAware Transoceanic
04:56PM 28.8315 -139.0707 248° West 413 475 43,000  Level FlightAware Transoceanic
04:57PM 28.7878 -139.1917 248° West 413 475 43,000  Level FlightAware Transoceanic
04:58PM 28.7439 -139.3125 247° West 413 475 43,000  Level FlightAware Transoceanic
04:59PM 28.7000 -139.4333 247° West 413 475 43,000  Level FlightAware Transoceanic
05:00PM 28.6521 -139.5634 247° West 413 475 43,000  Level FlightAware Transoceanic
05:01PM 28.6041 -139.6934 247° West 413 475 43,000  Level FlightAware Transoceanic
05:02PM 28.5560 -139.8233 247° West 413 475 43,000  Level FlightAware Transoceanic
05:02PM 28.7000 -139.4333 247° West 430 495 43,000  Level Oakland Oceanic (ODAPS)
05:03PM 28.5078 -139.9530 247° West 413 475 43,000  Level FlightAware Transoceanic
05:04PM 28.4594 -140.0827 247° West 413 475 43,000  Level FlightAware Transoceanic
05:05PM 28.4109 -140.2122 247° West 413 475 43,000  Level FlightAware Transoceanic
05:06PM 28.3623 -140.3416 247° West 413 475 43,000  Level FlightAware Transoceanic
05:07PM 28.3136 -140.4708 247° West 413 475 43,000  Level FlightAware Transoceanic
05:08PM 28.3277 -140.4332 247° West 430 495 43,000  Level FlightAware Transoceanic
05:09PM 28.2807 -140.5577 247° West 430 495 43,000  Level FlightAware Transoceanic
05:10PM 28.2335 -140.6821 247° West 430 495 43,000  Level FlightAware Transoceanic
05:11PM 28.1863 -140.8064 247° West 430 495 43,000  Level FlightAware Transoceanic
05:12PM 28.1389 -140.9306 247° West 430 495 43,000  Level FlightAware Transoceanic
05:13PM 28.0914 -141.0546 247° West 430 495 43,000  Level FlightAware Transoceanic
05:14PM 28.0438 -141.1786 246° West 430 495 43,000  Level FlightAware Transoceanic
05:15PM 27.9961 -141.3024 246° West 430 495 43,000  Level FlightAware Transoceanic
05:16PM 27.9483 -141.4261 246° West 430 495 43,000  Level FlightAware Transoceanic
05:17PM 27.9003 -141.5497 246° West 430 495 43,000  Level FlightAware Transoceanic
05:18PM 27.8523 -141.6732 246° West 430 495 43,000  Level FlightAware Transoceanic
05:19PM 27.8041 -141.7966 246° West 430 495 43,000  Level FlightAware Transoceanic
05:20PM 27.7559 -141.9199 246° West 430 495 43,000  Level FlightAware Transoceanic
05:21PM 27.7075 -142.0431 246° West 430 495 43,000  Level FlightAware Transoceanic
05:22PM 27.6590 -142.1662 246° West 430 495 43,000  Level FlightAware Transoceanic
05:23PM 27.6104 -142.2891 246° West 430 495 43,000  Level FlightAware Transoceanic
05:24PM 27.5617 -142.4120 246° West 430 495 43,000  Level FlightAware Transoceanic
05:25PM 27.5129 -142.5347 246° West 430 495 43,000  Level FlightAware Transoceanic
05:26PM 27.4640 -142.6573 246° West 430 495 43,000  Level FlightAware Transoceanic
05:27PM 27.4149 -142.7799 246° West 430 495 43,000  Level FlightAware Transoceanic
05:28PM 27.3658 -142.9023 246° West 430 495 43,000  Level FlightAware Transoceanic
05:29PM 27.3166 -143.0246 246° West 430 495 43,000  Level FlightAware Transoceanic
05:30PM 27.2672 -143.1468 246° West 430 495 43,000  Level FlightAware Transoceanic
05:31PM 27.2178 -143.2689 245° Southwest 430 495 43,000  Level FlightAware Transoceanic
05:32PM 27.1682 -143.3908 245° Southwest 430 495 43,000  Level FlightAware Transoceanic
05:33PM 27.1186 -143.5127 245° Southwest 430 495 43,000  Level FlightAware Transoceanic
05:34PM 27.0688 -143.6345 245° Southwest 430 495 43,000  Level FlightAware Transoceanic
05:35PM 27.0189 -143.7561 245° Southwest 430 495 43,000  Level FlightAware Transoceanic
05:36PM 26.9690 -143.8777 245° Southwest 430 495 43,000  Level FlightAware Transoceanic
05:37PM 26.9189 -143.9991 245° Southwest 430 495 43,000  Level FlightAware Transoceanic
05:38PM 26.8687 -144.1205 245° Southwest 430 495 43,000  Level FlightAware Transoceanic
05:39PM 26.8184 -144.2417 245° Southwest 430 495 43,000  Level FlightAware Transoceanic
05:40PM 26.7680 -144.3628 245° Southwest 430 495 43,000  Level FlightAware Transoceanic
05:41PM 26.7175 -144.4838 245° Southwest 430 495 43,000  Level FlightAware Transoceanic
05:42PM 26.6669 -144.6047 245° Southwest 430 495 43,000  Level FlightAware Transoceanic
05:43PM 26.6162 -144.7255 245° Southwest 430 495 43,000  Level FlightAware Transoceanic
05:44PM 26.5654 -144.8462 245° Southwest 430 495 43,000  Level FlightAware Transoceanic
05:45PM 26.5145 -144.9668 245° Southwest 430 495 43,000  Level FlightAware Transoceanic
05:46PM 26.4635 -145.0872 245° Southwest 430 495 43,000  Level FlightAware Transoceanic
05:47PM 26.4124 -145.2076 245° Southwest 430 495 43,000  Level FlightAware Transoceanic
05:48PM 26.3612 -145.3278 245° Southwest 430 495 43,000  Level FlightAware Transoceanic
05:49PM 26.3099 -145.4480 244° Southwest 430 495 43,000  Level FlightAware Transoceanic
05:50PM 26.2585 -145.5680 244° Southwest 430 495 43,000  Level FlightAware Transoceanic
05:51PM 26.2070 -145.6880 244° Southwest 430 495 43,000  Level FlightAware Transoceanic
05:52PM 26.1554 -145.8078 244° Southwest 430 495 43,000  Level FlightAware Transoceanic
05:53PM 26.1037 -145.9275 244° Southwest 430 495 43,000  Level FlightAware Transoceanic
05:54PM 26.0519 -146.0471 244° Southwest 430 495 43,000  Level FlightAware Transoceanic
05:55PM 26.0000 -146.1667 244° Southwest 430 495 43,000  Level FlightAware Transoceanic
05:55PM 26.0000 -146.1667 244° Southwest 453 521 43,000  Level Oakland Oceanic (ODAPS)
05:56PM 25.9442 -146.2955 244° Southwest 430 495 43,000  Level FlightAware Transoceanic
05:57PM 25.8883 -146.4241 244° Southwest 430 495 43,000  Level FlightAware Transoceanic
05:58PM 25.8322 -146.5527 244° Southwest 430 495 43,000  Level FlightAware Transoceanic
05:59PM 25.7761 -146.6811 244° Southwest 430 495 43,000  Level FlightAware Transoceanic
06:00PM 25.7198 -146.8094 244° Southwest 430 495 43,000  Level FlightAware Transoceanic
06:01PM 25.5591 -147.1739 244° Southwest 453 521 43,000  Level FlightAware Transoceanic
06:02PM 25.5035 -147.2993 244° Southwest 453 521 43,000  Level FlightAware Transoceanic
06:03PM 25.4478 -147.4245 244° Southwest 453 521 43,000  Level FlightAware Transoceanic
06:04PM 25.3920 -147.5497 244° Southwest 453 521 43,000  Level FlightAware Transoceanic
06:05PM 25.3360 -147.6747 244° Southwest 453 521 43,000  Level FlightAware Transoceanic
06:06PM 25.2800 -147.7997 244° Southwest 453 521 43,000  Level FlightAware Transoceanic
06:07PM 25.2239 -147.9245 244° Southwest 453 521 43,000  Level FlightAware Transoceanic
06:08PM 25.1677 -148.0491 243° Southwest 453 521 43,000  Level FlightAware Transoceanic
06:09PM 25.1113 -148.1737 243° Southwest 453 521 43,000  Level FlightAware Transoceanic
06:10PM 25.0549 -148.2982 243° Southwest 453 521 43,000  Level FlightAware Transoceanic
06:11PM 24.9983 -148.4225 243° Southwest 453 521 43,000  Level FlightAware Transoceanic
06:12PM 24.9417 -148.5467 243° Southwest 453 521 43,000  Level FlightAware Transoceanic
06:13PM 24.8849 -148.6708 243° Southwest 453 521 43,000  Level FlightAware Transoceanic
06:14PM 24.8281 -148.7948 243° Southwest 453 521 43,000  Level FlightAware Transoceanic
06:15PM 24.7711 -148.9187 243° Southwest 453 521 43,000  Level FlightAware Transoceanic
06:16PM 24.7141 -149.0425 243° Southwest 453 521 43,000  Level FlightAware Transoceanic
06:17PM 24.6569 -149.1662 243° Southwest 453 521 43,000  Level FlightAware Transoceanic
06:18PM 24.5996 -149.2897 243° Southwest 453 521 43,000  Level FlightAware Transoceanic
06:19PM 24.5423 -149.4131 243° Southwest 453 521 43,000  Level FlightAware Transoceanic
06:20PM 24.4848 -149.5365 243° Southwest 453 521 43,000  Level FlightAware Transoceanic
06:21PM 24.4272 -149.6597 243° Southwest 453 521 43,000  Level FlightAware Transoceanic
06:22PM 24.3696 -149.7827 243° Southwest 453 521 43,000  Level FlightAware Transoceanic
06:23PM 24.3118 -149.9057 243° Southwest 453 521 43,000  Level FlightAware Transoceanic
06:24PM 24.2540 -150.0286 243° Southwest 453 521 43,000  Level FlightAware Transoceanic
06:25PM 24.1960 -150.1514 243° Southwest 453 521 43,000  Level FlightAware Transoceanic
06:26PM 24.1380 -150.2740 243° Southwest 453 521 43,000  Level FlightAware Transoceanic
06:27PM 24.0798 -150.3965 243° Southwest 453 521 43,000  Level FlightAware Transoceanic
06:28PM 24.0215 -150.5190 242° Southwest 453 521 43,000  Level FlightAware Transoceanic
06:29PM 23.9632 -150.6413 242° Southwest 453 521 43,000  Level FlightAware Transoceanic
06:30PM 23.9047 -150.7635 242° Southwest 453 521 43,000  Level FlightAware Transoceanic
06:31PM 23.8462 -150.8855 242° Southwest 453 521 43,000  Level FlightAware Transoceanic
06:32PM 23.7876 -151.0075 242° Southwest 453 521 43,000  Level FlightAware Transoceanic
06:33PM 23.7288 -151.1294 242° Southwest 453 521 43,000  Level FlightAware Transoceanic
06:34PM 23.6700 -151.2512 242° Southwest 453 521 43,000  Level FlightAware Transoceanic
06:35PM 23.6111 -151.3728 242° Southwest 453 521 43,000  Level FlightAware Transoceanic
06:36PM 23.5520 -151.4944 242° Southwest 453 521 43,000  Level FlightAware Transoceanic
06:37PM 23.4929 -151.6158 242° Southwest 453 521 43,000  Level FlightAware Transoceanic
06:38PM 23.4337 -151.7371 242° Southwest 453 521 43,000  Level FlightAware Transoceanic
06:39PM 23.3744 -151.8583 242° Southwest 453 521 43,000  Level FlightAware Transoceanic
06:40PM 23.3150 -151.9794 242° Southwest 453 521 43,000  Level FlightAware Transoceanic
06:41PM 23.2555 -152.1004 242° Southwest 453 521 43,000  Level FlightAware Transoceanic
06:42PM 23.1960 -152.2213 242° Southwest 453 521 43,000  Level FlightAware Transoceanic
06:43PM 23.1363 -152.3421 242° Southwest 453 521 43,000  Level FlightAware Transoceanic
06:44PM 23.0765 -152.4628 242° Southwest 453 521 43,000  Level FlightAware Transoceanic
06:45PM 23.0167 -152.5833 242° Southwest 453 521 43,000  Level FlightAware Transoceanic
06:46PM 22.9521 -152.7139 242° Southwest 453 521 43,000  Level FlightAware Transoceanic
06:46PM 22.9833 -152.6667 241° Southwest 470 541 43,000  Level Honolulu Center
06:47PM 22.8875 -152.8443 242° Southwest 453 521 43,000  Level FlightAware Transoceanic
06:47PM 22.9333 -152.7500 237° Southwest 450 518 43,000  Level Honolulu Center
06:48PM 22.8228 -152.9746 242° Southwest 453 521 43,000  Level FlightAware Transoceanic
06:48PM 22.8500 -152.8833 236° Southwest 460 529 43,000  Level Honolulu Center
06:49PM 22.7579 -153.1048 242° Southwest 453 521 43,000  Level FlightAware Transoceanic
06:49PM 22.8000 -153.0167 248° West 460 529 43,000  Level Honolulu Center
06:50PM 22.6930 -153.2349 242° Southwest 453 521 43,000  Level FlightAware Transoceanic
06:50PM 22.7667 -153.1500 255° West 470 541 43,000  Level Honolulu Center
06:51PM 22.6279 -153.3648 241° Southwest 453 521 43,000  Level FlightAware Transoceanic
06:51PM 22.7333 -153.2833 255° West 470 541 43,000  Level Honolulu Center
06:52PM 22.6833 -153.4333 250° West 470 541 43,000  Level Honolulu Center
06:53PM 22.6500 -153.5667 255° West 470 541 43,000  Level Honolulu Center
06:54PM 22.6167 -153.7000 255° West 470 541 43,000  Level Honolulu Center
06:55PM 22.5667 -153.8333 248° West 480 552 43,000  Level Honolulu Center
06:56PM 22.5333 -153.9667 255° West 480 552 43,000  Level Honolulu Center
06:57PM 22.4833 -154.1167 250° West 470 541 43,000  Level Honolulu Center
06:58PM 22.4500 -154.2500 255° West 480 552 43,000  Level Honolulu Center
06:59PM 22.4000 -154.3833 248° West 480 552 43,000  Level Honolulu Center
07:00PM 22.3667 -154.5167 255° West 480 552 43,000  Level Honolulu Center
07:01PM 22.3167 -154.6500 248° West 480 552 43,000  Level Honolulu Center
07:02PM 22.2833 -154.8000 257° West 490 564 43,000  Level Honolulu Center
07:03PM 22.2333 -154.9333 248° West 480 552 43,000  Level Honolulu Center
07:04PM 22.1833 -155.0667 248° West 480 552 43,000  Level Honolulu Center
07:05PM 22.1500 -155.2167 257° West 490 564 43,000  Level Honolulu Center
07:06PM 22.1000 -155.3500 248° West 490 564 43,000  Level Honolulu Center
07:07PM 22.0500 -155.4833 248° West 490 564 43,000 -120 Level Honolulu Center
07:08PM 22.0167 -155.6333 257° West 480 552 42,800 -1,380 Descending Honolulu Center
07:09PM 21.9667 -155.7500 245° Southwest 460 529 40,300 -2,880 Descending Honolulu Center
07:10PM 21.9333 -155.9000 257° West 490 564 37,100 -2,160 Descending Honolulu Center
07:11PM 21.8667 -156.0667 247° West 510 587 36,000 -1,740 Descending Honolulu Center
07:12PM 21.8333 -156.2167 257° West 520 598 33,700 -2,640 Descending Honolulu Center
07:13PM 21.7833 -156.3667 250° West 530 610 30,700 -3,000 Descending Honolulu Center
07:14PM 21.7333 -156.5167 250° West 530 610 27,700 -2,940 Descending Honolulu Center
07:15PM 21.6833 -156.6667 250° West 510 587 24,800 -2,820 Descending Honolulu Center
07:16PM 21.6333 -156.8000 248° West 480 552 22,100 -2,580 Descending Honolulu Center
07:18PM 21.5500 -157.0500 250° West 450 518 17,100 -2,520 Descending Honolulu Center
07:19PM 21.5167 -157.1667 253° West 430 495 14,600 -2,340 Descending Honolulu Center
07:20PM 21.4833 -157.2833 253° West 410 472 12,400 -2,220 Descending Honolulu Center
07:21PM 21.4500 -157.4000 253° West 380 437 10,200 -1,200 Descending Honolulu Center
07:22PM 21.4000 -157.5000 242° Southwest 360 414 10,000 -120 Descending Honolulu Center
07:23PM 21.3500 -157.5833 237° Southwest 350 403 10,000 -900 Level Honolulu Center
07:24PM 21.3167 -157.6833 250° West 310 357 8,300 -960 Descending Honolulu Center
07:25PM 21.2833 -157.7667 247° West 300 345 8,100 -120 Descending Honolulu Center
07:26PM 21.2667 -157.8500 258° West 310 357 8,100 -480 Level Honolulu Center
07:27PM 21.2167 -157.9167 231° Southwest 300 345 7,200 -900 Descending Honolulu Center